Tampa, Florida
Current Conditions -  °F | °C
As of 2:53 PM on Tuesday 25 Nov 2014 (Local Time) from KTPA Reporting Station
Overcast Overcast  
Wind Chill: 75°   Ceiling: 4200
Heat Index: 75°   Visibility: 7mi
Dew Point: 72°   Wind: 13mph
Humidity: 90%   Direction: 190°S
Pressure: 29.89"   Gusts: NA
Location:  27.95°N, 82.46°W
Report Text: KTPA 251953Z 19011KT 7SM SCT017 BKN042 OVC070 24/22 A2989 RMK AO2 SLP121 T02390222
Loading
Personal Weather Stations






























Interactive Weather Map New forecast layout! Learn more

10-Day Weather Forecast

Advertisements
Track Severe Weather on mobile